createdAt,value
2023-02-06T00:01:23.157Z,15.10
2023-02-06T00:03:49.770Z,13.97
2023-02-06T00:06:16.993Z,14.27
2023-02-06T00:08:43.848Z,13.60
2023-02-06T00:11:13.171Z,14.43
2023-02-06T00:13:40.194Z,14.57
2023-02-06T00:16:25.558Z,14.07
2023-02-06T00:18:53.636Z,14.07
2023-02-06T00:21:24.381Z,14.63
2023-02-06T00:23:53.340Z,15.73
2023-02-06T00:26:20.891Z,13.77
2023-02-06T00:28:47.970Z,14.33
2023-02-06T00:31:15.795Z,14.47
2023-02-06T00:33:43.430Z,14.30
2023-02-06T00:36:10.809Z,15.37
2023-02-06T00:38:38.244Z,16.40
2023-02-06T00:41:05.442Z,16.53
2023-02-06T00:43:32.336Z,15.23
2023-02-06T00:45:59.242Z,14.63
2023-02-06T00:48:27.287Z,15.57
2023-02-06T00:50:54.381Z,15.30
2023-02-06T00:53:21.724Z,16.10
2023-02-06T00:55:48.388Z,14.47
2023-02-06T00:58:15.018Z,16.87
2023-02-06T01:00:41.668Z,15.67
2023-02-06T01:03:08.299Z,16.20
2023-02-06T01:05:35.364Z,15.43
2023-02-06T01:08:04.331Z,16.47
2023-02-06T01:10:31.545Z,15.60
2023-02-06T01:12:58.262Z,16.00
2023-02-06T01:15:25.114Z,16.30
2023-02-06T01:17:51.738Z,15.73
2023-02-06T01:20:18.527Z,16.23
2023-02-06T01:22:45.211Z,15.50
2023-02-06T01:25:11.937Z,16.63
2023-02-06T01:27:38.819Z,14.53
2023-02-06T01:30:07.102Z,15.63
2023-02-06T01:32:40.712Z,13.90
2023-02-06T01:35:12.006Z,15.23
2023-02-06T01:37:39.684Z,16.00
2023-02-06T01:40:09.369Z,16.43
2023-02-06T01:42:37.301Z,15.13
2023-02-06T01:45:25.828Z,16.40
2023-02-06T01:47:58.728Z,14.70
2023-02-06T01:50:25.537Z,14.80
2023-02-06T01:52:52.483Z,15.73
2023-02-06T01:55:19.371Z,15.40
2023-02-06T01:57:46.180Z,15.87
2023-02-06T02:00:13.483Z,14.83
2023-02-06T02:02:43.412Z,13.97
2023-02-06T02:05:12.378Z,16.53
2023-02-06T02:07:46.050Z,16.20
2023-02-06T02:10:12.785Z,15.30
2023-02-06T02:12:39.981Z,15.93
2023-02-06T02:15:07.108Z,18.00
2023-02-06T02:17:36.801Z,17.50
2023-02-06T02:20:31.416Z,19.20
2023-02-06T02:23:13.493Z,20.77
2023-02-06T02:26:01.989Z,20.10
2023-02-06T02:28:54.831Z,20.70
2023-02-06T02:31:53.654Z,21.47
2023-02-06T02:34:56.896Z,20.13
2023-02-06T02:37:39.555Z,18.83
2023-02-06T02:40:50.600Z,19.87
2023-02-06T02:43:51.821Z,19.37
2023-02-06T02:46:41.315Z,18.53
2023-02-06T02:49:14.842Z,18.67
2023-02-06T02:51:42.755Z,19.10
2023-02-06T02:54:09.836Z,17.60
2023-02-06T02:56:36.481Z,19.03
2023-02-06T02:59:05.243Z,18.50
2023-02-06T03:01:37.179Z,18.90
2023-02-06T03:04:14.006Z,18.00
2023-02-06T03:06:49.595Z,18.33
2023-02-06T03:09:34.234Z,19.03
2023-02-06T03:12:33.492Z,17.13
2023-02-06T03:15:15.462Z,19.33
2023-02-06T03:17:47.498Z,18.67
2023-02-06T03:20:16.535Z,17.90
2023-02-06T03:22:45.785Z,18.70
2023-02-06T03:25:16.458Z,19.40
2023-02-06T03:27:44.891Z,17.43
2023-02-06T03:30:14.050Z,17.27
2023-02-06T03:32:45.253Z,16.67
2023-02-06T03:35:21.797Z,18.00
2023-02-06T03:37:50.081Z,18.63
2023-02-06T03:40:18.121Z,19.10
2023-02-06T03:42:51.797Z,17.53
2023-02-06T03:45:31.498Z,18.13
2023-02-06T03:48:02.401Z,18.63
2023-02-06T03:50:30.428Z,18.70
2023-02-06T03:53:00.550Z,18.80
2023-02-06T03:55:27.216Z,18.43
2023-02-06T03:58:05.523Z,20.47
2023-02-06T04:00:33.895Z,17.77
2023-02-06T04:03:00.961Z,17.03
2023-02-06T04:05:27.739Z,19.17
2023-02-06T04:07:56.506Z,18.70
2023-02-06T04:10:26.101Z,17.97
2023-02-06T04:12:53.388Z,17.33
2023-02-06T04:15:20.084Z,18.00
2023-02-06T04:17:59.402Z,19.30
2023-02-06T04:20:26.994Z,18.70
2023-02-06T04:22:53.780Z,20.63
2023-02-06T04:25:20.454Z,21.10
2023-02-06T04:27:47.125Z,22.47
2023-02-06T04:30:15.413Z,22.17
2023-02-06T04:32:42.123Z,22.10
2023-02-06T04:35:09.191Z,23.80
2023-02-06T04:37:35.933Z,21.90
2023-02-06T04:40:05.412Z,22.30
2023-02-06T04:42:32.119Z,20.77
2023-02-06T04:44:58.907Z,22.90
2023-02-06T04:47:25.652Z,22.20
2023-02-06T04:49:52.395Z,25.60
2023-02-06T04:52:19.062Z,23.73
2023-02-06T04:54:45.715Z,23.93
2023-02-06T04:57:12.349Z,22.93
2023-02-06T04:59:38.997Z,22.93
2023-02-06T05:02:05.714Z,22.53
2023-02-06T05:04:32.351Z,22.30
2023-02-06T05:06:58.988Z,24.50
2023-02-06T05:09:25.624Z,22.57
2023-02-06T05:11:52.268Z,23.40
2023-02-06T05:14:18.914Z,23.83
2023-02-06T05:16:45.569Z,24.63
2023-02-06T05:19:12.493Z,23.50
2023-02-06T05:21:39.148Z,24.60
2023-02-06T05:24:06.040Z,27.43
2023-02-06T05:26:32.723Z,24.33
2023-02-06T05:29:01.323Z,22.73
2023-02-06T05:31:28.112Z,24.70
2023-02-06T05:33:55.028Z,24.83
2023-02-06T05:36:22.456Z,25.37
2023-02-06T05:38:50.066Z,23.63
2023-02-06T05:41:20.433Z,24.00
2023-02-06T05:43:54.439Z,23.77
2023-02-06T05:46:21.104Z,24.33
2023-02-06T05:48:47.753Z,26.33
2023-02-06T05:51:14.672Z,26.97
2023-02-06T05:53:41.324Z,25.47
2023-02-06T05:56:07.932Z,25.80
2023-02-06T05:58:34.652Z,25.50
2023-02-06T06:01:01.333Z,23.97
2023-02-06T06:03:27.948Z,22.90
2023-02-06T06:05:55.022Z,25.40
2023-02-06T06:08:22.239Z,25.70
2023-02-06T06:10:52.561Z,24.27
2023-02-06T06:13:19.440Z,24.13
2023-02-06T06:15:49.393Z,26.50
2023-02-06T06:18:16.021Z,22.67
2023-02-06T06:20:42.688Z,23.20
2023-02-06T06:23:09.340Z,23.57
2023-02-06T06:25:37.088Z,25.87
2023-02-06T06:28:04.551Z,25.13
2023-02-06T06:30:31.294Z,25.80
2023-02-06T06:32:58.186Z,24.10
2023-02-06T06:35:26.005Z,24.23
2023-02-06T06:37:52.727Z,24.33
2023-02-06T06:40:19.496Z,23.03
2023-02-06T06:42:46.307Z,23.83
2023-02-06T06:45:12.991Z,23.90
2023-02-06T06:47:39.626Z,21.73
2023-02-06T06:50:07.330Z,24.87
2023-02-06T06:52:34.018Z,23.33
2023-02-06T06:55:00.744Z,23.17
2023-02-06T06:57:31.569Z,24.60
2023-02-06T06:59:58.241Z,25.33
2023-02-06T07:02:25.017Z,23.93
2023-02-06T07:04:51.679Z,24.63
2023-02-06T07:07:18.426Z,25.17
2023-02-06T07:09:45.034Z,22.83
2023-02-06T07:12:11.705Z,23.13
2023-02-06T07:14:40.052Z,21.60
2023-02-06T07:17:06.723Z,21.60
2023-02-06T07:19:33.424Z,21.90
2023-02-06T07:22:00.088Z,22.00
2023-02-06T07:24:26.866Z,20.83
2023-02-06T07:26:53.612Z,21.87
2023-02-06T07:29:20.409Z,21.17
2023-02-06T07:31:47.161Z,22.30
2023-02-06T07:34:14.316Z,20.90
2023-02-06T07:36:40.962Z,22.50
2023-02-06T07:39:07.695Z,23.10
2023-02-06T07:41:34.695Z,22.97
2023-02-06T07:44:01.802Z,20.50
2023-02-06T07:46:28.654Z,22.30
2023-02-06T07:48:55.393Z,23.47
2023-02-06T07:51:22.917Z,22.57
2023-02-06T07:53:49.765Z,22.47
2023-02-06T07:56:18.690Z,21.60
2023-02-06T07:58:49.748Z,20.57
2023-02-06T08:01:16.621Z,19.60
2023-02-06T08:03:43.357Z,21.73
2023-02-06T08:06:12.535Z,20.77
2023-02-06T08:08:39.248Z,19.20
2023-02-06T08:11:08.306Z,20.27
2023-02-06T08:13:35.487Z,18.33
2023-02-06T08:16:07.811Z,17.37
2023-02-06T08:18:35.075Z,16.87
2023-02-06T08:21:17.008Z,16.60
2023-02-06T08:23:44.186Z,16.03
2023-02-06T08:26:16.866Z,16.97
2023-02-06T08:28:45.271Z,16.83
2023-02-06T08:31:14.553Z,15.77
2023-02-06T08:33:41.635Z,15.50
2023-02-06T08:36:09.675Z,16.07
2023-02-06T08:38:36.991Z,16.23
2023-02-06T08:41:04.663Z,14.23
2023-02-06T08:43:33.124Z,14.33
2023-02-06T08:46:00.134Z,15.23
2023-02-06T08:48:26.934Z,16.20
2023-02-06T08:51:02.775Z,16.53
2023-02-06T08:53:29.747Z,14.73
2023-02-06T08:56:04.854Z,15.63
2023-02-06T08:58:32.470Z,14.70
2023-02-06T09:00:59.929Z,15.87
2023-02-06T09:03:27.191Z,15.57
2023-02-06T09:06:09.377Z,15.37
2023-02-06T09:08:38.070Z,15.10
2023-02-06T09:11:15.629Z,14.87
2023-02-06T09:13:44.224Z,14.77
2023-02-06T09:16:11.949Z,14.33
2023-02-06T09:18:38.869Z,13.93
2023-02-06T09:21:13.473Z,14.07
2023-02-06T09:23:43.609Z,15.03
2023-02-06T09:26:12.069Z,14.83
2023-02-06T09:28:39.288Z,13.83
2023-02-06T09:31:08.085Z,14.10
2023-02-06T09:33:35.267Z,12.97
2023-02-06T09:36:14.258Z,14.70
2023-02-06T09:38:44.014Z,14.20
2023-02-06T09:41:40.551Z,13.40
2023-02-06T09:44:10.247Z,12.83
2023-02-06T09:46:48.531Z,12.27
2023-02-06T09:49:32.848Z,11.67
2023-02-06T09:52:26.031Z,10.40
2023-02-06T09:55:27.404Z,10.40
2023-02-06T09:58:12.925Z,10.00
2023-02-06T10:00:53.499Z,10.50
2023-02-06T10:03:43.758Z,10.27
2023-02-06T10:06:13.502Z,10.27
2023-02-06T10:08:46.792Z,11.27
2023-02-06T10:11:35.044Z,10.70
2023-02-06T10:14:06.883Z,11.10
2023-02-06T10:16:48.312Z,10.20
2023-02-06T10:19:22.625Z,11.03
2023-02-06T10:22:12.686Z,10.67
2023-02-06T10:24:50.316Z,9.07
2023-02-06T10:27:18.011Z,9.57
2023-02-06T10:29:46.712Z,10.20
2023-02-06T10:32:32.285Z,10.80
2023-02-06T10:35:33.354Z,9.20
2023-02-06T10:38:14.746Z,9.37
2023-02-06T10:40:59.452Z,10.50
2023-02-06T10:43:40.385Z,9.00
2023-02-06T10:46:41.095Z,9.50
2023-02-06T10:49:27.809Z,9.00
2023-02-06T10:52:00.155Z,9.17
2023-02-06T10:54:42.972Z,8.87
2023-02-06T10:57:20.135Z,9.10
2023-02-06T10:59:53.564Z,9.03
2023-02-06T11:02:45.330Z,9.30
2023-02-06T11:05:22.041Z,8.93
2023-02-06T11:07:55.210Z,8.07
2023-02-06T11:10:25.261Z,9.00
2023-02-06T11:13:03.738Z,7.90
2023-02-06T11:16:00.180Z,8.53
2023-02-06T11:18:34.484Z,7.53
2023-02-06T11:21:05.889Z,8.00
2023-02-06T11:23:34.641Z,8.50
2023-02-06T11:26:19.500Z,7.83
2023-02-06T11:28:52.448Z,6.93
2023-02-06T11:31:38.216Z,6.67
2023-02-06T11:34:05.252Z,7.90
2023-02-06T11:36:38.932Z,7.80
2023-02-06T11:39:30.584Z,7.13
2023-02-06T11:42:22.494Z,7.90
2023-02-06T11:44:49.648Z,7.20
2023-02-06T11:47:37.437Z,7.23
2023-02-06T11:50:13.751Z,7.03
2023-02-06T11:52:46.897Z,6.37
2023-02-06T11:55:36.633Z,6.80
2023-02-06T11:58:12.268Z,6.10
2023-02-06T12:00:56.941Z,5.23
2023-02-06T12:03:55.069Z,5.70
2023-02-06T12:06:27.558Z,5.67
2023-02-06T12:09:01.398Z,5.67
2023-02-06T12:11:34.568Z,5.80
2023-02-06T12:14:14.944Z,5.23
2023-02-06T12:16:47.967Z,5.40
2023-02-06T12:19:37.273Z,4.90
2023-02-06T12:22:22.613Z,4.43
2023-02-06T12:24:53.696Z,4.87
2023-02-06T12:27:34.263Z,4.50
2023-02-06T12:30:15.906Z,4.83
2023-02-06T12:32:46.790Z,4.60
2023-02-06T12:35:26.659Z,4.83
2023-02-06T12:38:07.966Z,4.50
2023-02-06T12:40:51.407Z,4.43
2023-02-06T12:43:19.673Z,4.83
2023-02-06T12:45:52.453Z,4.73
2023-02-06T12:48:41.748Z,5.40
2023-02-06T12:51:41.572Z,5.07
2023-02-06T12:54:19.761Z,4.93
2023-02-06T12:56:57.166Z,5.03
2023-02-06T13:00:01.318Z,4.77
2023-02-06T13:03:01.749Z,5.47
2023-02-06T13:05:40.587Z,4.57
2023-02-06T13:08:12.335Z,5.50
2023-02-06T13:10:39.797Z,5.00
2023-02-06T13:13:20.945Z,5.50
2023-02-06T13:15:53.769Z,5.43
2023-02-06T13:18:41.568Z,5.10
2023-02-06T13:21:18.409Z,5.20
2023-02-06T13:24:11.109Z,5.43
2023-02-06T13:26:51.611Z,5.40
2023-02-06T13:29:29.806Z,5.57
2023-02-06T13:32:22.690Z,4.87
2023-02-06T13:34:53.709Z,5.17
2023-02-06T13:37:32.329Z,5.60
2023-02-06T13:40:26.724Z,5.10
2023-02-06T13:43:05.305Z,5.53
2023-02-06T13:45:50.628Z,4.80
2023-02-06T13:48:35.513Z,5.00
2023-02-06T13:51:32.042Z,4.83
2023-02-06T13:54:26.716Z,4.53
2023-02-06T13:57:15.920Z,5.17
2023-02-06T14:00:07.458Z,5.37
2023-02-06T14:02:37.971Z,4.50
2023-02-06T14:05:10.837Z,4.50
2023-02-06T14:08:05.802Z,4.07
2023-02-06T14:11:03.037Z,3.80
2023-02-06T14:13:49.052Z,3.60
2023-02-06T14:16:27.414Z,3.43
2023-02-06T14:18:59.272Z,3.47
2023-02-06T14:21:35.364Z,3.10
2023-02-06T14:24:40.735Z,3.70
2023-02-06T14:27:26.185Z,2.83
2023-02-06T14:30:17.276Z,2.83
2023-02-06T14:33:34.707Z,2.60
2023-02-06T14:36:29.087Z,2.90
2023-02-06T14:39:33.634Z,2.93
2023-02-06T14:42:14.992Z,2.93
2023-02-06T14:44:43.175Z,2.80
2023-02-06T14:47:20.834Z,2.77
2023-02-06T14:49:48.982Z,2.90
2023-02-06T14:52:23.464Z,2.80
2023-02-06T14:54:50.908Z,3.00
2023-02-06T14:57:23.100Z,3.07
2023-02-06T14:59:52.736Z,3.40
2023-02-06T15:02:36.743Z,2.70
2023-02-06T15:05:04.965Z,2.50
2023-02-06T15:07:38.946Z,2.63
2023-02-06T15:10:18.211Z,2.40
2023-02-06T15:12:55.313Z,2.40
2023-02-06T15:15:27.938Z,2.57
2023-02-06T15:18:01.838Z,2.70
2023-02-06T15:20:31.554Z,2.00
2023-02-06T15:23:16.635Z,2.30
2023-02-06T15:26:10.729Z,2.80
2023-02-06T15:28:38.133Z,2.20
2023-02-06T15:31:14.900Z,2.03
2023-02-06T15:33:41.779Z,2.83
2023-02-06T15:36:19.830Z,2.37
2023-02-06T15:38:46.734Z,2.50
2023-02-06T15:41:13.586Z,2.90
2023-02-06T15:43:41.475Z,2.50
2023-02-06T15:46:08.517Z,2.43
2023-02-06T15:48:40.279Z,2.73
2023-02-06T15:51:07.615Z,2.10
2023-02-06T15:53:48.017Z,2.47
2023-02-06T15:56:26.251Z,2.30
2023-02-06T15:59:05.566Z,2.60
2023-02-06T16:01:38.548Z,2.50
2023-02-06T16:04:37.946Z,3.10
2023-02-06T16:07:22.607Z,2.57
2023-02-06T16:10:03.941Z,2.60
2023-02-06T16:12:41.379Z,2.70
2023-02-06T16:15:30.185Z,3.07
2023-02-06T16:17:58.594Z,2.87
2023-02-06T16:20:39.356Z,2.53
2023-02-06T16:23:26.827Z,2.30
2023-02-06T16:26:16.697Z,2.63
2023-02-06T16:28:55.622Z,2.70
2023-02-06T16:31:22.989Z,2.67
2023-02-06T16:33:52.378Z,2.70
2023-02-06T16:36:20.904Z,1.87
2023-02-06T16:38:57.654Z,2.80
2023-02-06T16:41:34.566Z,2.30
2023-02-06T16:44:02.394Z,2.40
2023-02-06T16:46:30.239Z,2.60
2023-02-06T16:48:59.455Z,2.57
2023-02-06T16:51:30.124Z,2.37
2023-02-06T16:53:57.979Z,2.30
2023-02-06T16:56:25.015Z,2.30
2023-02-06T16:58:51.812Z,2.27
2023-02-06T17:01:25.602Z,2.00
2023-02-06T17:03:53.436Z,2.60
2023-02-06T17:06:25.903Z,2.50
2023-02-06T17:08:55.643Z,2.60
2023-02-06T17:11:22.413Z,1.90
2023-02-06T17:13:49.131Z,2.60
2023-02-06T17:16:22.672Z,2.40
2023-02-06T17:18:50.178Z,2.00
2023-02-06T17:21:19.269Z,2.43
2023-02-06T17:23:49.049Z,2.60
2023-02-06T17:26:21.316Z,2.47
2023-02-06T17:28:49.009Z,3.00
2023-02-06T17:31:16.093Z,2.57
2023-02-06T17:33:42.949Z,2.57
2023-02-06T17:36:39.483Z,2.90
2023-02-06T17:39:07.092Z,2.97
2023-02-06T17:41:35.416Z,2.80
2023-02-06T17:44:02.244Z,3.10
2023-02-06T17:46:29.031Z,2.97
2023-02-06T17:48:55.710Z,2.93
2023-02-06T17:51:22.644Z,2.50
2023-02-06T17:53:50.322Z,2.40
2023-02-06T17:56:17.296Z,2.40
2023-02-06T17:58:43.939Z,2.67
2023-02-06T18:01:20.538Z,2.53
2023-02-06T18:03:48.125Z,2.63
2023-02-06T18:06:16.227Z,2.80
2023-02-06T18:08:44.331Z,2.37
2023-02-06T18:11:13.300Z,2.47
2023-02-06T18:13:42.460Z,2.70
2023-02-06T18:16:15.030Z,2.77
2023-02-06T18:18:42.330Z,2.40
2023-02-06T18:21:09.245Z,2.40
2023-02-06T18:23:36.256Z,2.27
2023-02-06T18:26:05.650Z,2.00
2023-02-06T18:28:33.686Z,2.23
2023-02-06T18:31:02.189Z,2.30
2023-02-06T18:33:35.120Z,2.23
2023-02-06T18:36:08.657Z,2.50
2023-02-06T18:38:35.632Z,2.30
2023-02-06T18:41:04.494Z,2.60
2023-02-06T18:43:31.371Z,2.83
2023-02-06T18:45:58.236Z,2.50
2023-02-06T18:48:24.987Z,3.07
2023-02-06T18:50:52.303Z,2.40
2023-02-06T18:53:19.086Z,2.43
2023-02-06T18:55:45.853Z,2.63
2023-02-06T18:58:12.630Z,3.07
2023-02-06T19:00:42.300Z,3.23
2023-02-06T19:03:09.116Z,3.10
2023-02-06T19:05:36.445Z,3.27
2023-02-06T19:08:03.502Z,3.00
2023-02-06T19:10:30.296Z,3.47
2023-02-06T19:12:57.000Z,3.37
2023-02-06T19:15:23.749Z,3.63
2023-02-06T19:17:50.653Z,3.07
2023-02-06T19:20:17.910Z,3.40
2023-02-06T19:22:44.783Z,4.03
2023-02-06T19:25:14.460Z,3.50
2023-02-06T19:27:41.639Z,3.60
2023-02-06T19:30:09.080Z,3.10
2023-02-06T19:32:36.497Z,3.37
2023-02-06T19:35:03.802Z,3.40
2023-02-06T19:37:31.117Z,3.20
2023-02-06T19:39:58.302Z,3.33
2023-02-06T19:42:25.188Z,3.33
2023-02-06T19:44:54.407Z,4.33
2023-02-06T19:47:21.464Z,3.80
2023-02-06T19:49:56.018Z,3.63
2023-02-06T19:52:22.958Z,3.60
2023-02-06T19:54:49.689Z,4.57
2023-02-06T19:57:19.324Z,4.40
2023-02-06T19:59:46.123Z,3.50
2023-02-06T20:02:16.060Z,3.70
2023-02-06T20:04:42.925Z,4.27
2023-02-06T20:07:09.766Z,4.10
2023-02-06T20:09:41.076Z,4.20
2023-02-06T20:12:10.229Z,4.47
2023-02-06T20:14:36.984Z,5.07
2023-02-06T20:17:04.694Z,4.30
2023-02-06T20:19:32.199Z,4.50
2023-02-06T20:22:00.606Z,4.63
2023-02-06T20:24:30.464Z,4.50
2023-02-06T20:27:01.120Z,5.00
2023-02-06T20:29:33.678Z,5.03
2023-02-06T20:32:01.522Z,4.40
2023-02-06T20:34:28.750Z,4.93
2023-02-06T20:36:56.041Z,5.10
2023-02-06T20:39:23.305Z,5.10
2023-02-06T20:41:50.692Z,5.40
2023-02-06T20:44:19.245Z,5.67
2023-02-06T20:46:46.818Z,4.80
2023-02-06T20:49:19.701Z,5.33
2023-02-06T20:51:49.002Z,5.73
2023-02-06T20:54:16.295Z,5.97
2023-02-06T20:56:43.190Z,6.23
2023-02-06T20:59:14.099Z,5.87
2023-02-06T21:01:41.827Z,5.60
2023-02-06T21:04:10.185Z,6.13
2023-02-06T21:06:38.724Z,5.80
2023-02-06T21:09:07.472Z,5.63
2023-02-06T21:11:38.668Z,6.17
2023-02-06T21:14:06.816Z,6.17
2023-02-06T21:16:34.888Z,5.57
2023-02-06T21:19:05.250Z,5.90
2023-02-06T21:21:32.178Z,6.40
2023-02-06T21:23:58.990Z,6.60
2023-02-06T21:26:26.439Z,6.37
2023-02-06T21:28:54.100Z,6.20
2023-02-06T21:31:32.992Z,6.30
2023-02-06T21:34:06.957Z,6.43
2023-02-06T21:36:35.326Z,5.40
2023-02-06T21:39:02.293Z,6.67
2023-02-06T21:41:29.201Z,5.80
2023-02-06T21:43:55.933Z,6.03
2023-02-06T21:46:22.678Z,6.47
2023-02-06T21:48:53.627Z,6.77
2023-02-06T21:51:21.344Z,6.07
2023-02-06T21:53:48.143Z,6.33
2023-02-06T21:56:20.630Z,6.37
2023-02-06T21:58:48.263Z,5.83
2023-02-06T22:01:21.063Z,6.57
2023-02-06T22:03:48.336Z,6.20
2023-02-06T22:06:15.583Z,6.17
2023-02-06T22:08:44.702Z,6.70
2023-02-06T22:11:30.939Z,6.73
2023-02-06T22:14:02.951Z,6.13
2023-02-06T22:16:29.991Z,7.60
2023-02-06T22:18:57.639Z,6.93
2023-02-06T22:21:27.457Z,7.80
2023-02-06T22:23:57.679Z,7.20
2023-02-06T22:26:25.293Z,7.80
2023-02-06T22:28:52.044Z,7.30
2023-02-06T22:31:24.043Z,7.00
2023-02-06T22:33:51.167Z,7.70
2023-02-06T22:36:21.146Z,7.63
2023-02-06T22:38:52.094Z,7.40
2023-02-06T22:41:19.012Z,7.00
2023-02-06T22:43:48.590Z,7.50
2023-02-06T22:46:33.864Z,7.33
2023-02-06T22:49:01.054Z,6.60
2023-02-06T22:51:28.163Z,6.77
2023-02-06T22:53:54.935Z,6.00
2023-02-06T22:56:27.461Z,6.73
2023-02-06T22:58:56.261Z,6.00
2023-02-06T23:01:25.235Z,6.03
2023-02-06T23:03:54.067Z,6.60
2023-02-06T23:06:21.286Z,5.77
2023-02-06T23:08:48.344Z,5.47
2023-02-06T23:11:15.378Z,4.47
2023-02-06T23:13:42.606Z,5.10
2023-02-06T23:16:10.475Z,5.90
2023-02-06T23:18:37.691Z,5.80
2023-02-06T23:21:09.964Z,5.70
2023-02-06T23:23:37.366Z,6.43
2023-02-06T23:26:08.163Z,6.40
2023-02-06T23:28:36.499Z,6.07
2023-02-06T23:31:03.535Z,7.30
2023-02-06T23:33:30.389Z,7.70
2023-02-06T23:36:06.185Z,7.03
2023-02-06T23:38:33.332Z,6.47
2023-02-06T23:41:05.274Z,5.70
2023-02-06T23:43:32.428Z,7.40
2023-02-06T23:45:59.248Z,7.67
2023-02-06T23:48:25.949Z,6.60
2023-02-06T23:50:52.558Z,6.30
2023-02-06T23:53:19.271Z,6.83
2023-02-06T23:55:46.252Z,6.83
2023-02-06T23:58:12.990Z,6.77
